sensor_id;sensor_type;location;lat;lon;timestamp;pressure;altitude;pressure_sealevel;temperature;humidity
20630;BME280;17386;43.846;25.950;2023-12-04T00:01:15;102117.63;;;2.86;100.00
20630;BME280;17386;43.846;25.950;2023-12-04T00:03:41;102104.53;;;2.88;100.00
20630;BME280;17386;43.846;25.950;2023-12-04T00:06:06;102118.72;;;2.96;100.00
20630;BME280;17386;43.846;25.950;2023-12-04T00:08:32;102132.50;;;2.86;100.00
20630;BME280;17386;43.846;25.950;2023-12-04T00:10:58;102132.66;;;2.95;100.00
20630;BME280;17386;43.846;25.950;2023-12-04T00:13:24;102126.34;;;2.84;100.00
20630;BME280;17386;43.846;25.950;2023-12-04T00:15:49;102129.97;;;2.90;100.00
20630;BME280;17386;43.846;25.950;2023-12-04T00:18:14;102128.28;;;2.94;100.00
20630;BME280;17386;43.846;25.950;2023-12-04T00:20:40;102128.16;;;2.86;100.00
20630;BME280;17386;43.846;25.950;2023-12-04T00:23:05;102133.56;;;2.95;100.00
20630;BME280;17386;43.846;25.950;2023-12-04T00:25:31;102138.00;;;2.98;100.00
20630;BME280;17386;43.846;25.950;2023-12-04T00:27:56;102148.47;;;2.96;100.00
20630;BME280;17386;43.846;25.950;2023-12-04T00:30:22;102153.25;;;2.72;100.00
20630;BME280;17386;43.846;25.950;2023-12-04T00:32:47;102166.50;;;2.78;100.00
20630;BME280;17386;43.846;25.950;2023-12-04T00:35:13;102167.47;;;2.83;100.00
20630;BME280;17386;43.846;25.950;2023-12-04T00:37:38;102173.75;;;2.91;100.00
20630;BME280;17386;43.846;25.950;2023-12-04T00:40:05;102165.09;;;2.95;100.00
20630;BME280;17386;43.846;25.950;2023-12-04T00:42:31;102159.88;;;3.00;100.00
20630;BME280;17386;43.846;25.950;2023-12-04T00:44:56;102160.72;;;2.97;100.00
20630;BME280;17386;43.846;25.950;2023-12-04T00:47:21;102165.09;;;2.97;100.00
20630;BME280;17386;43.846;25.950;2023-12-04T00:49:47;102166.63;;;2.84;100.00
20630;BME280;17386;43.846;25.950;2023-12-04T00:52:12;102177.22;;;2.89;100.00
20630;BME280;17386;43.846;25.950;2023-12-04T00:54:41;102181.84;;;3.02;100.00
20630;BME280;17386;43.846;25.950;2023-12-04T00:57:08;102187.25;;;3.13;100.00
20630;BME280;17386;43.846;25.950;2023-12-04T00:59:34;102186.41;;;3.15;100.00
20630;BME280;17386;43.846;25.950;2023-12-04T01:01:59;102178.53;;;3.15;100.00
20630;BME280;17386;43.846;25.950;2023-12-04T01:04:25;102180.41;;;3.21;100.00
20630;BME280;17386;43.846;25.950;2023-12-04T01:06:51;102182.22;;;3.23;100.00
20630;BME280;17386;43.846;25.950;2023-12-04T01:09:17;102192.72;;;3.23;100.00
20630;BME280;17386;43.846;25.950;2023-12-04T01:11:42;102189.97;;;3.17;100.00
20630;BME280;17386;43.846;25.950;2023-12-04T01:14:08;102194.47;;;3.24;100.00
20630;BME280;17386;43.846;25.950;2023-12-04T01:16:33;102181.22;;;3.17;100.00
20630;BME280;17386;43.846;25.950;2023-12-04T01:18:59;102191.59;;;3.09;100.00
20630;BME280;17386;43.846;25.950;2023-12-04T01:21:24;102190.53;;;3.01;100.00
20630;BME280;17386;43.846;25.950;2023-12-04T01:23:52;102201.59;;;2.83;100.00
20630;BME280;17386;43.846;25.950;2023-12-04T01:26:17;102186.78;;;2.87;100.00
20630;BME280;17386;43.846;25.950;2023-12-04T01:28:43;102188.97;;;2.65;100.00
20630;BME280;17386;43.846;25.950;2023-12-04T01:31:08;102192.31;;;2.57;100.00
20630;BME280;17386;43.846;25.950;2023-12-04T01:33:34;102203.50;;;2.48;100.00
20630;BME280;17386;43.846;25.950;2023-12-04T01:36:00;102195.50;;;2.40;100.00
20630;BME280;17386;43.846;25.950;2023-12-04T01:38:25;102202.63;;;2.47;100.00
20630;BME280;17386;43.846;25.950;2023-12-04T01:40:51;102210.72;;;2.60;100.00
20630;BME280;17386;43.846;25.950;2023-12-04T01:43:16;102209.03;;;2.62;100.00
20630;BME280;17386;43.846;25.950;2023-12-04T01:45:41;102210.00;;;2.67;100.00
20630;BME280;17386;43.846;25.950;2023-12-04T01:48:08;102210.25;;;2.79;100.00
20630;BME280;17386;43.846;25.950;2023-12-04T01:50:35;102212.09;;;2.83;100.00
20630;BME280;17386;43.846;25.950;2023-12-04T01:53:01;102226.81;;;2.75;100.00
20630;BME280;17386;43.846;25.950;2023-12-04T01:55:28;102221.78;;;2.87;100.00
20630;BME280;17386;43.846;25.950;2023-12-04T01:57:55;102216.22;;;2.72;100.00
20630;BME280;17386;43.846;25.950;2023-12-04T02:00:21;102224.94;;;2.69;100.00
20630;BME280;17386;43.846;25.950;2023-12-04T02:02:47;102223.38;;;2.79;100.00
20630;BME280;17386;43.846;25.950;2023-12-04T02:05:13;102232.38;;;2.92;100.00
20630;BME280;17386;43.846;25.950;2023-12-04T02:07:40;102222.75;;;2.49;100.00
20630;BME280;17386;43.846;25.950;2023-12-04T02:10:06;102231.56;;;2.52;100.00
20630;BME280;17386;43.846;25.950;2023-12-04T02:12:32;102234.91;;;2.45;100.00
20630;BME280;17386;43.846;25.950;2023-12-04T02:14:57;102234.06;;;2.46;100.00
20630;BME280;17386;43.846;25.950;2023-12-04T02:17:24;102225.50;;;2.55;100.00
20630;BME280;17386;43.846;25.950;2023-12-04T02:19:50;102234.34;;;2.60;100.00
20630;BME280;17386;43.846;25.950;2023-12-04T02:22:16;102239.59;;;2.60;100.00
20630;BME280;17386;43.846;25.950;2023-12-04T02:24:44;102245.31;;;2.40;100.00
20630;BME280;17386;43.846;25.950;2023-12-04T02:27:17;102251.47;;;2.42;100.00
20630;BME280;17386;43.846;25.950;2023-12-04T02:29:47;102249.78;;;2.46;100.00
20630;BME280;17386;43.846;25.950;2023-12-04T02:32:18;102245.38;;;2.43;100.00
20630;BME280;17386;43.846;25.950;2023-12-04T02:34:45;102248.75;;;2.38;100.00
20630;BME280;17386;43.846;25.950;2023-12-04T02:37:14;102252.38;;;2.44;100.00
20630;BME280;17386;43.846;25.950;2023-12-04T02:39:40;102250.78;;;2.51;100.00
20630;BME280;17386;43.846;25.950;2023-12-04T02:42:06;102246.50;;;2.55;100.00
20630;BME280;17386;43.846;25.950;2023-12-04T02:44:31;102251.66;;;2.52;100.00
20630;BME280;17386;43.846;25.950;2023-12-04T02:46:57;102249.75;;;2.44;100.00
20630;BME280;17386;43.846;25.950;2023-12-04T02:49:22;102262.13;;;2.50;100.00
20630;BME280;17386;43.846;25.950;2023-12-04T02:51:48;102260.66;;;2.63;100.00
20630;BME280;17386;43.846;25.950;2023-12-04T02:54:13;102263.31;;;2.64;100.00
20630;BME280;17386;43.846;25.950;2023-12-04T02:56:39;102269.31;;;2.59;100.00
20630;BME280;17386;43.846;25.950;2023-12-04T02:59:04;102267.28;;;2.47;100.00
20630;BME280;17386;43.846;25.950;2023-12-04T03:01:29;102270.59;;;2.38;100.00
20630;BME280;17386;43.846;25.950;2023-12-04T03:03:55;102272.59;;;2.49;100.00
20630;BME280;17386;43.846;25.950;2023-12-04T03:06:20;102275.28;;;2.52;100.00
20630;BME280;17386;43.846;25.950;2023-12-04T03:08:46;102279.09;;;2.67;100.00
20630;BME280;17386;43.846;25.950;2023-12-04T03:11:11;102278.34;;;2.71;100.00
20630;BME280;17386;43.846;25.950;2023-12-04T03:13:37;102279.28;;;2.75;100.00
20630;BME280;17386;43.846;25.950;2023-12-04T03:16:02;102289.06;;;2.82;100.00
20630;BME280;17386;43.846;25.950;2023-12-04T03:18:28;102297.66;;;2.75;100.00
20630;BME280;17386;43.846;25.950;2023-12-04T03:20:54;102297.59;;;2.72;100.00
20630;BME280;17386;43.846;25.950;2023-12-04T03:23:19;102288.66;;;2.64;100.00
20630;BME280;17386;43.846;25.950;2023-12-04T03:25:45;102295.81;;;2.71;100.00
20630;BME280;17386;43.846;25.950;2023-12-04T03:28:10;102302.03;;;2.74;100.00
20630;BME280;17386;43.846;25.950;2023-12-04T03:30:35;102298.50;;;2.74;100.00
20630;BME280;17386;43.846;25.950;2023-12-04T03:33:01;102302.66;;;2.64;100.00
20630;BME280;17386;43.846;25.950;2023-12-04T03:35:26;102303.66;;;2.69;100.00
20630;BME280;17386;43.846;25.950;2023-12-04T03:37:52;102297.59;;;2.72;100.00
20630;BME280;17386;43.846;25.950;2023-12-04T03:40:17;102304.09;;;2.50;100.00
20630;BME280;17386;43.846;25.950;2023-12-04T03:42:43;102308.59;;;2.54;100.00
20630;BME280;17386;43.846;25.950;2023-12-04T03:45:09;102306.13;;;2.62;100.00
20630;BME280;17386;43.846;25.950;2023-12-04T03:47:34;102310.38;;;2.57;100.00
20630;BME280;17386;43.846;25.950;2023-12-04T03:50:00;102308.22;;;2.39;100.00
20630;BME280;17386;43.846;25.950;2023-12-04T03:52:25;102303.59;;;2.27;100.00
20630;BME280;17386;43.846;25.950;2023-12-04T03:54:50;102311.63;;;2.35;100.00
20630;BME280;17386;43.846;25.950;2023-12-04T03:57:16;102311.00;;;2.46;100.00
20630;BME280;17386;43.846;25.950;2023-12-04T03:59:41;102317.25;;;2.52;100.00
20630;BME280;17386;43.846;25.950;2023-12-04T04:02:08;102324.19;;;2.48;100.00
20630;BME280;17386;43.846;25.950;2023-12-04T04:04:33;102325.50;;;2.31;100.00
20630;BME280;17386;43.846;25.950;2023-12-04T04:06:59;102322.13;;;2.35;100.00
20630;BME280;17386;43.846;25.950;2023-12-04T04:09:25;102329.06;;;2.33;100.00
20630;BME280;17386;43.846;25.950;2023-12-04T04:11:50;102320.22;;;2.28;100.00
20630;BME280;17386;43.846;25.950;2023-12-04T04:14:16;102329.16;;;2.37;100.00
20630;BME280;17386;43.846;25.950;2023-12-04T04:16:41;102325.63;;;2.35;100.00
20630;BME280;17386;43.846;25.950;2023-12-04T04:19:06;102336.16;;;2.37;100.00
20630;BME280;17386;43.846;25.950;2023-12-04T04:21:32;102326.25;;;2.25;99.50
20630;BME280;17386;43.846;25.950;2023-12-04T04:23:57;102327.69;;;2.12;99.68
20630;BME280;17386;43.846;25.950;2023-12-04T04:26:23;102327.69;;;2.12;99.76
20630;BME280;17386;43.846;25.950;2023-12-04T04:28:48;102341.56;;;2.07;100.00
20630;BME280;17386;43.846;25.950;2023-12-04T04:31:14;102338.09;;;2.08;100.00
20630;BME280;17386;43.846;25.950;2023-12-04T04:33:39;102337.75;;;1.94;100.00
20630;BME280;17386;43.846;25.950;2023-12-04T04:36:05;102344.63;;;1.90;99.75
20630;BME280;17386;43.846;25.950;2023-12-04T04:38:30;102340.06;;;1.83;100.00
20630;BME280;17386;43.846;25.950;2023-12-04T04:40:55;102339.97;;;1.79;99.62
20630;BME280;17386;43.846;25.950;2023-12-04T04:43:21;102356.47;;;1.75;99.88
20630;BME280;17386;43.846;25.950;2023-12-04T04:45:46;102359.97;;;1.75;99.95
20630;BME280;17386;43.846;25.950;2023-12-04T04:48:12;102345.41;;;1.53;100.00
20630;BME280;17386;43.846;25.950;2023-12-04T04:50:37;102361.56;;;1.70;100.00
20630;BME280;17386;43.846;25.950;2023-12-04T04:53:03;102362.44;;;1.71;100.00
20630;BME280;17386;43.846;25.950;2023-12-04T04:55:28;102365.03;;;1.69;100.00
20630;BME280;17386;43.846;25.950;2023-12-04T04:57:55;102374.56;;;1.66;100.00
20630;BME280;17386;43.846;25.950;2023-12-04T05:00:20;102375.63;;;1.72;100.00
20630;BME280;17386;43.846;25.950;2023-12-04T05:02:46;102377.41;;;1.75;100.00
20630;BME280;17386;43.846;25.950;2023-12-04T05:05:11;102375.84;;;1.81;100.00
20630;BME280;17386;43.846;25.950;2023-12-04T05:07:37;102375.91;;;1.84;100.00
20630;BME280;17386;43.846;25.950;2023-12-04T05:10:02;102379.38;;;1.83;100.00
20630;BME280;17386;43.846;25.950;2023-12-04T05:12:29;102382.84;;;1.82;100.00
20630;BME280;17386;43.846;25.950;2023-12-04T05:14:54;102375.47;;;1.68;100.00
20630;BME280;17386;43.846;25.950;2023-12-04T05:17:19;102370.09;;;1.63;100.00
20630;BME280;17386;43.846;25.950;2023-12-04T05:19:45;102382.72;;;1.45;100.00
20630;BME280;17386;43.846;25.950;2023-12-04T05:22:10;102389.53;;;1.38;100.00
20630;BME280;17386;43.846;25.950;2023-12-04T05:24:36;102386.16;;;1.44;100.00
20630;BME280;17386;43.846;25.950;2023-12-04T05:27:01;102393.41;;;1.52;100.00
20630;BME280;17386;43.846;25.950;2023-12-04T05:29:28;102397.31;;;1.36;100.00
20630;BME280;17386;43.846;25.950;2023-12-04T05:31:53;102405.06;;;1.32;100.00
20630;BME280;17386;43.846;25.950;2023-12-04T05:34:18;102386.72;;;1.32;100.00
20630;BME280;17386;43.846;25.950;2023-12-04T05:36:44;102397.38;;;1.38;100.00
20630;BME280;17386;43.846;25.950;2023-12-04T05:39:09;102401.72;;;1.38;100.00
20630;BME280;17386;43.846;25.950;2023-12-04T05:41:34;102388.78;;;1.44;100.00
20630;BME280;17386;43.846;25.950;2023-12-04T05:44:00;102389.59;;;1.41;100.00
20630;BME280;17386;43.846;25.950;2023-12-04T05:46:26;102392.16;;;1.40;100.00
20630;BME280;17386;43.846;25.950;2023-12-04T05:48:51;102397.63;;;1.47;100.00
20630;BME280;17386;43.846;25.950;2023-12-04T05:51:17;102385.91;;;1.34;100.00
20630;BME280;17386;43.846;25.950;2023-12-04T05:53:42;102416.03;;;1.50;100.00
20630;BME280;17386;43.846;25.950;2023-12-04T05:56:08;102405.44;;;1.46;100.00
20630;BME280;17386;43.846;25.950;2023-12-04T05:58:34;102410.94;;;1.55;100.00
20630;BME280;17386;43.846;25.950;2023-12-04T06:01:00;102418.78;;;1.55;100.00
20630;BME280;17386;43.846;25.950;2023-12-04T06:03:25;102422.03;;;1.46;99.96
20630;BME280;17386;43.846;25.950;2023-12-04T06:05:51;102425.41;;;1.42;100.00
20630;BME280;17386;43.846;25.950;2023-12-04T06:08:16;102422.06;;;1.48;99.91
20630;BME280;17386;43.846;25.950;2023-12-04T06:10:42;102422.22;;;1.52;100.00
20630;BME280;17386;43.846;25.950;2023-12-04T06:13:07;102433.59;;;1.53;99.23
20630;BME280;17386;43.846;25.950;2023-12-04T06:15:32;102425.94;;;1.60;99.31
20630;BME280;17386;43.846;25.950;2023-12-04T06:17:58;102432.19;;;1.66;98.68
20630;BME280;17386;43.846;25.950;2023-12-04T06:20:23;102432.06;;;1.61;97.72
20630;BME280;17386;43.846;25.950;2023-12-04T06:22:49;102443.47;;;1.63;97.86
20630;BME280;17386;43.846;25.950;2023-12-04T06:25:15;102431.13;;;1.59;97.81
20630;BME280;17386;43.846;25.950;2023-12-04T06:27:41;102437.78;;;1.48;97.39
20630;BME280;17386;43.846;25.950;2023-12-04T06:30:06;102438.84;;;1.54;97.81
20630;BME280;17386;43.846;25.950;2023-12-04T06:32:32;102438.72;;;1.50;97.03
20630;BME280;17386;43.846;25.950;2023-12-04T06:34:58;102435.13;;;1.46;96.93
20630;BME280;17386;43.846;25.950;2023-12-04T06:37:24;102438.78;;;1.51;97.14
20630;BME280;17386;43.846;25.950;2023-12-04T06:39:50;102443.88;;;1.47;95.41
20630;BME280;17386;43.846;25.950;2023-12-04T06:42:18;102442.22;;;1.50;95.50
20630;BME280;17386;43.846;25.950;2023-12-04T06:44:44;102450.41;;;1.61;95.97
20630;BME280;17386;43.846;25.950;2023-12-04T06:47:09;102460.91;;;1.62;96.01
20630;BME280;17386;43.846;25.950;2023-12-04T06:49:37;102462.50;;;1.57;95.20
20630;BME280;17386;43.846;25.950;2023-12-04T06:52:03;102469.47;;;1.57;94.65
20630;BME280;17386;43.846;25.950;2023-12-04T06:54:28;102473.31;;;1.68;95.12
20630;BME280;17386;43.846;25.950;2023-12-04T06:56:54;102472.81;;;1.81;96.32
20630;BME280;17386;43.846;25.950;2023-12-04T06:59:20;102479.19;;;1.91;95.45
20630;BME280;17386;43.846;25.950;2023-12-04T07:01:45;102481.47;;;1.79;94.34
20630;BME280;17386;43.846;25.950;2023-12-04T07:04:11;102479.59;;;1.75;94.51
20630;BME280;17386;43.846;25.950;2023-12-04T07:06:37;102481.81;;;1.91;95.07
20630;BME280;17386;43.846;25.950;2023-12-04T07:09:03;102487.34;;;2.02;93.75
20630;BME280;17386;43.846;25.950;2023-12-04T07:11:29;102495.50;;;2.12;93.45
20630;BME280;17386;43.846;25.950;2023-12-04T07:13:54;102498.59;;;1.98;92.64
20630;BME280;17386;43.846;25.950;2023-12-04T07:16:20;102491.00;;;2.07;92.55
20630;BME280;17386;43.846;25.950;2023-12-04T07:18:45;102506.56;;;2.01;93.05
20630;BME280;17386;43.846;25.950;2023-12-04T07:21:11;102504.03;;;2.05;93.31
20630;BME280;17386;43.846;25.950;2023-12-04T07:23:36;102505.69;;;2.02;94.74
20630;BME280;17386;43.846;25.950;2023-12-04T07:26:02;102501.97;;;1.94;95.94
20630;BME280;17386;43.846;25.950;2023-12-04T07:28:28;102498.03;;;2.09;96.29
20630;BME280;17386;43.846;25.950;2023-12-04T07:30:54;102501.59;;;2.11;96.66
20630;BME280;17386;43.846;25.950;2023-12-04T07:33:20;102500.16;;;2.23;95.18
20630;BME280;17386;43.846;25.950;2023-12-04T07:35:46;102502.78;;;2.23;92.97
20630;BME280;17386;43.846;25.950;2023-12-04T07:38:12;102508.97;;;2.26;91.64
20630;BME280;17386;43.846;25.950;2023-12-04T07:40:37;102512.75;;;2.36;90.88
20630;BME280;17386;43.846;25.950;2023-12-04T07:43:03;102514.22;;;2.26;89.93
20630;BME280;17386;43.846;25.950;2023-12-04T07:45:28;102516.06;;;2.29;89.57
20630;BME280;17386;43.846;25.950;2023-12-04T07:47:54;102524.03;;;2.33;88.71
20630;BME280;17386;43.846;25.950;2023-12-04T07:50:19;102531.38;;;2.46;87.41
20630;BME280;17386;43.846;25.950;2023-12-04T07:52:44;102528.19;;;2.58;87.51
20630;BME280;17386;43.846;25.950;2023-12-04T07:55:10;102531.94;;;2.68;87.32
20630;BME280;17386;43.846;25.950;2023-12-04T07:57:35;102533.63;;;2.66;86.70
20630;BME280;17386;43.846;25.950;2023-12-04T08:00:01;102533.91;;;2.77;86.17
20630;BME280;17386;43.846;25.950;2023-12-04T08:02:26;102538.63;;;2.90;85.21
20630;BME280;17386;43.846;25.950;2023-12-04T08:04:51;102532.47;;;2.89;85.03
20630;BME280;17386;43.846;25.950;2023-12-04T08:07:18;102533.94;;;2.78;85.05
20630;BME280;17386;43.846;25.950;2023-12-04T08:09:44;102528.88;;;2.86;85.66
20630;BME280;17386;43.846;25.950;2023-12-04T08:12:09;102530.00;;;2.95;85.79
20630;BME280;17386;43.846;25.950;2023-12-04T08:14:35;102537.34;;;3.10;84.87
20630;BME280;17386;43.846;25.950;2023-12-04T08:17:00;102532.97;;;3.11;84.80
20630;BME280;17386;43.846;25.950;2023-12-04T08:19:26;102536.22;;;3.00;84.41
20630;BME280;17386;43.846;25.950;2023-12-04T08:21:51;102537.25;;;3.07;84.46
20630;BME280;17386;43.846;25.950;2023-12-04T08:24:16;102527.56;;;3.03;85.45
20630;BME280;17386;43.846;25.950;2023-12-04T08:26:44;102538.25;;;3.11;86.43
20630;BME280;17386;43.846;25.950;2023-12-04T08:29:11;102531.63;;;3.28;86.28
20630;BME280;17386;43.846;25.950;2023-12-04T08:31:36;102524.41;;;3.57;85.03
20630;BME280;17386;43.846;25.950;2023-12-04T08:34:01;102525.47;;;4.10;82.38
20630;BME280;17386;43.846;25.950;2023-12-04T08:36:27;102527.13;;;4.51;78.37
20630;BME280;17386;43.846;25.950;2023-12-04T08:38:52;102524.94;;;4.77;77.80
20630;BME280;17386;43.846;25.950;2023-12-04T08:41:18;102524.44;;;4.02;78.30
20630;BME280;17386;43.846;25.950;2023-12-04T08:43:43;102521.06;;;4.08;80.64
20630;BME280;17386;43.846;25.950;2023-12-04T08:46:12;102513.16;;;4.06;80.51
20630;BME280;17386;43.846;25.950;2023-12-04T08:48:40;102516.97;;;4.24;80.41
20630;BME280;17386;43.846;25.950;2023-12-04T08:51:05;102512.91;;;4.41;80.16
20630;BME280;17386;43.846;25.950;2023-12-04T08:53:31;102507.25;;;4.68;78.35
20630;BME280;17386;43.846;25.950;2023-12-04T08:55:56;102497.50;;;4.64;77.02
20630;BME280;17386;43.846;25.950;2023-12-04T08:58:23;102501.03;;;4.16;78.64
20630;BME280;17386;43.846;25.950;2023-12-04T09:00:48;102497.56;;;4.17;80.25
20630;BME280;17386;43.846;25.950;2023-12-04T09:03:13;102492.44;;;4.25;80.91
20630;BME280;17386;43.846;25.950;2023-12-04T09:05:39;102492.34;;;4.19;78.81
20630;BME280;17386;43.846;25.950;2023-12-04T09:08:05;102488.28;;;4.39;79.14
20630;BME280;17386;43.846;25.950;2023-12-04T09:10:30;102484.41;;;4.67;79.41
20630;BME280;17386;43.846;25.950;2023-12-04T09:12:55;102497.38;;;4.55;78.53
20630;BME280;17386;43.846;25.950;2023-12-04T09:15:21;102493.31;;;4.74;79.02
20630;BME280;17386;43.846;25.950;2023-12-04T09:17:47;102490.91;;;4.87;78.49
20630;BME280;17386;43.846;25.950;2023-12-04T09:20:12;102498.81;;;4.39;77.20
20630;BME280;17386;43.846;25.950;2023-12-04T09:22:37;102483.00;;;4.36;78.82
20630;BME280;17386;43.846;25.950;2023-12-04T09:25:07;102489.50;;;4.56;78.54
20630;BME280;17386;43.846;25.950;2023-12-04T09:27:34;102477.72;;;4.34;77.86
20630;BME280;17386;43.846;25.950;2023-12-04T09:29:59;102484.25;;;4.08;78.89
20630;BME280;17386;43.846;25.950;2023-12-04T09:32:25;102479.25;;;4.23;80.45
20630;BME280;17386;43.846;25.950;2023-12-04T09:34:50;102474.25;;;4.38;82.76
20630;BME280;17386;43.846;25.950;2023-12-04T09:37:16;102475.44;;;4.54;80.97
20630;BME280;17386;43.846;25.950;2023-12-04T09:39:41;102468.41;;;4.55;79.14
20630;BME280;17386;43.846;25.950;2023-12-04T09:42:07;102468.84;;;4.81;78.41
20630;BME280;17386;43.846;25.950;2023-12-04T09:44:34;102461.47;;;5.17;78.70
20630;BME280;17386;43.846;25.950;2023-12-04T09:47:00;102467.22;;;5.54;76.08
20630;BME280;17386;43.846;25.950;2023-12-04T09:49:28;102468.50;;;5.85;74.44
20630;BME280;17386;43.846;25.950;2023-12-04T09:51:55;102460.19;;;5.53;73.75
20630;BME280;17386;43.846;25.950;2023-12-04T09:54:22;102467.41;;;5.69;74.39
20630;BME280;17386;43.846;25.950;2023-12-04T09:56:49;102471.31;;;5.97;72.33
20630;BME280;17386;43.846;25.950;2023-12-04T09:59:16;102466.22;;;6.17;72.42
20630;BME280;17386;43.846;25.950;2023-12-04T10:01:43;102468.31;;;6.52;71.41
20630;BME280;17386;43.846;25.950;2023-12-04T10:04:10;102463.59;;;7.34;67.12
20630;BME280;17386;43.846;25.950;2023-12-04T10:06:43;102461.06;;;7.56;66.84
20630;BME280;17386;43.846;25.950;2023-12-04T10:09:08;102452.47;;;8.55;64.13
20630;BME280;17386;43.846;25.950;2023-12-04T10:11:45;102441.78;;;9.16;61.56
20630;BME280;17386;43.846;25.950;2023-12-04T10:14:20;102436.50;;;9.14;60.33
20630;BME280;17386;43.846;25.950;2023-12-04T10:16:46;102422.28;;;9.35;58.77
20630;BME280;17386;43.846;25.950;2023-12-04T10:19:21;102433.69;;;9.52;57.21
20630;BME280;17386;43.846;25.950;2023-12-04T10:21:56;102433.88;;;8.35;59.81
20630;BME280;17386;43.846;25.950;2023-12-04T10:24:31;102431.25;;;8.87;59.14
20630;BME280;17386;43.846;25.950;2023-12-04T10:26:57;102419.78;;;8.86;58.72
20630;BME280;17386;43.846;25.950;2023-12-04T10:29:23;102413.31;;;9.57;57.88
20630;BME280;17386;43.846;25.950;2023-12-04T10:31:50;102425.09;;;8.42;59.51
20630;BME280;17386;43.846;25.950;2023-12-04T10:34:17;102419.72;;;7.93;60.73
20630;BME280;17386;43.846;25.950;2023-12-04T10:36:45;102421.50;;;8.00;60.67
20630;BME280;17386;43.846;25.950;2023-12-04T10:39:11;102416.25;;;8.49;59.85
20630;BME280;17386;43.846;25.950;2023-12-04T10:41:38;102419.75;;;7.96;60.90
20630;BME280;17386;43.846;25.950;2023-12-04T10:44:04;102416.25;;;8.32;59.75
20630;BME280;17386;43.846;25.950;2023-12-04T10:46:30;102420.63;;;8.04;61.46
20630;BME280;17386;43.846;25.950;2023-12-04T10:48:57;102415.25;;;7.81;63.85
20630;BME280;17386;43.846;25.950;2023-12-04T10:51:25;102428.56;;;8.10;61.81
20630;BME280;17386;43.846;25.950;2023-12-04T10:53:51;102429.50;;;8.41;59.77
20630;BME280;17386;43.846;25.950;2023-12-04T10:56:25;102425.97;;;8.73;59.62
20630;BME280;17386;43.846;25.950;2023-12-04T10:58:53;102422.41;;;8.75;60.86
20630;BME280;17386;43.846;25.950;2023-12-04T11:01:20;102419.75;;;8.34;60.22
20630;BME280;17386;43.846;25.950;2023-12-04T11:03:52;102425.97;;;8.36;59.93
20630;BME280;17386;43.846;25.950;2023-12-04T11:06:21;102421.53;;;8.57;59.54
20630;BME280;17386;43.846;25.950;2023-12-04T11:08:48;102425.97;;;8.55;59.98
20630;BME280;17386;43.846;25.950;2023-12-04T11:11:21;102409.19;;;8.74;59.73
20630;BME280;17386;43.846;25.950;2023-12-04T11:13:50;102417.13;;;8.33;60.15
20630;BME280;17386;43.846;25.950;2023-12-04T11:18:51;102408.91;;;7.21;63.33
20630;BME280;17386;43.846;25.950;2023-12-04T11:21:20;102411.50;;;7.20;63.74
20630;BME280;17386;43.846;25.950;2023-12-04T11:23:46;102406.25;;;7.21;66.33
20630;BME280;17386;43.846;25.950;2023-12-04T11:26:13;102420.19;;;6.96;63.50
20630;BME280;17386;43.846;25.950;2023-12-04T11:28:40;102418.81;;;6.25;65.05
20630;BME280;17386;43.846;25.950;2023-12-04T11:31:06;102416.13;;;6.20;67.42
20630;BME280;17386;43.846;25.950;2023-12-04T11:33:36;102407.13;;;6.03;67.70
20630;BME280;17386;43.846;25.950;2023-12-04T11:36:09;102412.94;;;5.71;68.28
20630;BME280;17386;43.846;25.950;2023-12-04T11:38:36;102417.22;;;5.62;69.87
20630;BME280;17386;43.846;25.950;2023-12-04T11:41:22;102418.09;;;5.59;70.74
20630;BME280;17386;43.846;25.950;2023-12-04T11:43:48;102412.63;;;5.42;71.58
20630;BME280;17386;43.846;25.950;2023-12-04T11:46:19;102405.53;;;5.40;72.93
20630;BME280;17386;43.846;25.950;2023-12-04T11:48:49;102400.00;;;5.17;74.18
20630;BME280;17386;43.846;25.950;2023-12-04T11:54:03;102393.75;;;5.10;75.52
20630;BME280;17386;43.846;25.950;2023-12-04T11:56:30;102390.34;;;5.20;75.34
20630;BME280;17386;43.846;25.950;2023-12-04T11:59:02;102397.63;;;5.38;74.41
20630;BME280;17386;43.846;25.950;2023-12-04T12:01:28;102384.53;;;5.47;73.36
20630;BME280;17386;43.846;25.950;2023-12-04T12:03:58;102387.88;;;5.31;73.95
20630;BME280;17386;43.846;25.950;2023-12-04T12:06:24;102387.53;;;5.05;75.50
20630;BME280;17386;43.846;25.950;2023-12-04T12:08:50;102390.19;;;5.07;76.05
20630;BME280;17386;43.846;25.950;2023-12-04T12:11:16;102385.16;;;5.24;76.96
20630;BME280;17386;43.846;25.950;2023-12-04T12:13:42;102379.00;;;5.26;75.89
20630;BME280;17386;43.846;25.950;2023-12-04T12:16:08;102382.25;;;5.02;77.17
20630;BME280;17386;43.846;25.950;2023-12-04T12:18:36;102378.03;;;5.16;77.39
20630;BME280;17386;43.846;25.950;2023-12-04T12:21:02;102380.78;;;5.27;76.50
20630;BME280;17386;43.846;25.950;2023-12-04T12:23:28;102382.59;;;5.30;76.77
20630;BME280;17386;43.846;25.950;2023-12-04T12:25:54;102389.53;;;5.25;76.57
20630;BME280;17386;43.846;25.950;2023-12-04T12:28:20;102392.09;;;5.17;76.39
20630;BME280;17386;43.846;25.950;2023-12-04T12:30:45;102382.44;;;5.17;77.41
20630;BME280;17386;43.846;25.950;2023-12-04T12:33:14;102386.63;;;5.03;77.15
20630;BME280;17386;43.846;25.950;2023-12-04T12:35:40;102378.03;;;5.18;76.69
20630;BME280;17386;43.846;25.950;2023-12-04T12:38:06;102388.66;;;5.24;76.28
20630;BME280;17386;43.846;25.950;2023-12-04T12:40:32;102370.03;;;5.09;77.03
20630;BME280;17386;43.846;25.950;2023-12-04T12:43:08;102367.56;;;5.22;78.06
20630;BME280;17386;43.846;25.950;2023-12-04T12:48:15;102370.31;;;5.33;76.39